sensor_id;sensor_type;location;lat;lon;timestamp;pressure;altitude;pressure_sealevel;temperature;humidity
18504;BME280;9381;54.244;10.074;2023-06-10T00:01:12;101529.38;;;15.24;100.00
18504;BME280;9381;54.244;10.074;2023-06-10T00:06:13;101527.47;;;15.25;100.00
18504;BME280;9381;54.244;10.074;2023-06-10T00:11:13;101519.28;;;15.25;100.00
18504;BME280;9381;54.244;10.074;2023-06-10T00:16:13;101525.03;;;15.17;100.00
18504;BME280;9381;54.244;10.074;2023-06-10T00:21:14;101519.16;;;15.20;100.00
18504;BME280;9381;54.244;10.074;2023-06-10T00:26:14;101524.53;;;15.26;100.00
18504;BME280;9381;54.244;10.074;2023-06-10T00:31:16;101525.44;;;15.20;100.00
18504;BME280;9381;54.244;10.074;2023-06-10T00:36:16;101528.22;;;15.14;100.00
18504;BME280;9381;54.244;10.074;2023-06-10T00:41:16;101525.22;;;15.22;100.00
18504;BME280;9381;54.244;10.074;2023-06-10T00:46:17;101520.19;;;15.19;100.00
18504;BME280;9381;54.244;10.074;2023-06-10T00:51:18;101521.13;;;15.13;100.00
18504;BME280;9381;54.244;10.074;2023-06-10T00:56:19;101524.66;;;15.13;100.00
18504;BME280;9381;54.244;10.074;2023-06-10T01:01:20;101531.56;;;15.16;100.00
18504;BME280;9381;54.244;10.074;2023-06-10T01:07:02;101517.63;;;15.06;100.00
18504;BME280;9381;54.244;10.074;2023-06-10T01:12:10;101523.97;;;15.18;100.00
18504;BME280;9381;54.244;10.074;2023-06-10T01:17:12;101522.47;;;15.04;100.00
18504;BME280;9381;54.244;10.074;2023-06-10T01:22:12;101517.34;;;15.14;100.00
18504;BME280;9381;54.244;10.074;2023-06-10T01:27:18;101516.09;;;15.10;100.00
18504;BME280;9381;54.244;10.074;2023-06-10T01:32:31;101529.13;;;15.08;100.00
18504;BME280;9381;54.244;10.074;2023-06-10T01:37:33;101524.75;;;15.07;100.00
18504;BME280;9381;54.244;10.074;2023-06-10T01:42:33;101523.97;;;15.00;100.00
18504;BME280;9381;54.244;10.074;2023-06-10T01:47:34;101522.31;;;14.99;100.00
18504;BME280;9381;54.244;10.074;2023-06-10T01:52:34;101524.22;;;14.98;100.00
18504;BME280;9381;54.244;10.074;2023-06-10T01:57:34;101514.59;;;14.78;100.00
18504;BME280;9381;54.244;10.074;2023-06-10T02:02:35;101513.44;;;14.85;100.00
18504;BME280;9381;54.244;10.074;2023-06-10T02:07:35;101515.75;;;14.64;100.00
18504;BME280;9381;54.244;10.074;2023-06-10T02:12:36;101509.75;;;14.80;100.00
18504;BME280;9381;54.244;10.074;2023-06-10T02:17:36;101521.97;;;14.71;100.00
18504;BME280;9381;54.244;10.074;2023-06-10T02:22:37;101521.53;;;14.74;100.00
18504;BME280;9381;54.244;10.074;2023-06-10T02:27:37;101536.97;;;14.80;100.00
18504;BME280;9381;54.244;10.074;2023-06-10T02:32:38;101533.31;;;14.68;100.00
18504;BME280;9381;54.244;10.074;2023-06-10T02:37:38;101533.53;;;14.67;99.18
18504;BME280;9381;54.244;10.074;2023-06-10T02:42:38;101532.00;;;14.53;98.30
18504;BME280;9381;54.244;10.074;2023-06-10T02:47:39;101534.63;;;14.41;100.00
18504;BME280;9381;54.244;10.074;2023-06-10T02:52:40;101529.72;;;14.25;100.00
18504;BME280;9381;54.244;10.074;2023-06-10T02:57:40;101522.72;;;14.36;100.00
18504;BME280;9381;54.244;10.074;2023-06-10T03:02:40;101538.47;;;14.27;100.00
18504;BME280;9381;54.244;10.074;2023-06-10T03:07:41;101529.00;;;14.36;100.00
18504;BME280;9381;54.244;10.074;2023-06-10T03:12:41;101531.72;;;14.36;100.00
18504;BME280;9381;54.244;10.074;2023-06-10T03:17:41;101524.78;;;14.40;100.00
18504;BME280;9381;54.244;10.074;2023-06-10T03:22:42;101532.94;;;14.40;100.00
18504;BME280;9381;54.244;10.074;2023-06-10T03:27:42;101532.09;;;14.40;100.00
18504;BME280;9381;54.244;10.074;2023-06-10T03:32:43;101532.22;;;14.51;100.00
18504;BME280;9381;54.244;10.074;2023-06-10T03:37:43;101533.88;;;14.52;100.00
18504;BME280;9381;54.244;10.074;2023-06-10T03:42:44;101537.22;;;14.54;100.00
18504;BME280;9381;54.244;10.074;2023-06-10T03:47:44;101541.28;;;14.70;100.00
18504;BME280;9381;54.244;10.074;2023-06-10T03:52:45;101540.44;;;14.69;100.00
18504;BME280;9381;54.244;10.074;2023-06-10T03:57:47;101534.91;;;14.75;100.00
18504;BME280;9381;54.244;10.074;2023-06-10T04:02:48;101538.63;;;14.81;100.00
18504;BME280;9381;54.244;10.074;2023-06-10T04:07:51;101538.66;;;14.99;100.00
18504;BME280;9381;54.244;10.074;2023-06-10T04:12:51;101541.25;;;15.12;100.00
18504;BME280;9381;54.244;10.074;2023-06-10T04:17:52;101539.81;;;15.27;100.00
18504;BME280;9381;54.244;10.074;2023-06-10T04:22:52;101537.03;;;15.34;100.00
18504;BME280;9381;54.244;10.074;2023-06-10T04:27:53;101550.97;;;15.44;100.00
18504;BME280;9381;54.244;10.074;2023-06-10T04:32:53;101556.63;;;15.60;100.00
18504;BME280;9381;54.244;10.074;2023-06-10T04:37:54;101546.72;;;15.66;100.00
18504;BME280;9381;54.244;10.074;2023-06-10T04:42:54;101548.34;;;15.85;100.00
18504;BME280;9381;54.244;10.074;2023-06-10T04:47:55;101547.88;;;15.88;100.00
18504;BME280;9381;54.244;10.074;2023-06-10T04:52:56;101536.16;;;15.99;100.00
18504;BME280;9381;54.244;10.074;2023-06-10T04:57:59;101537.13;;;16.04;98.87
18504;BME280;9381;54.244;10.074;2023-06-10T05:02:59;101547.91;;;16.11;100.00
18504;BME280;9381;54.244;10.074;2023-06-10T05:08:00;101544.88;;;16.19;99.58
18504;BME280;9381;54.244;10.074;2023-06-10T05:13:00;101543.00;;;16.31;99.19
18504;BME280;9381;54.244;10.074;2023-06-10T05:18:00;101537.34;;;16.44;98.47
18504;BME280;9381;54.244;10.074;2023-06-10T05:23:02;101543.56;;;16.51;97.19
18504;BME280;9381;54.244;10.074;2023-06-10T05:28:03;101545.22;;;16.52;97.91
18504;BME280;9381;54.244;10.074;2023-06-10T05:33:04;101540.72;;;16.69;98.01
18504;BME280;9381;54.244;10.074;2023-06-10T05:38:05;101536.78;;;16.88;95.65
18504;BME280;9381;54.244;10.074;2023-06-10T05:43:05;101542.25;;;16.99;95.00
18504;BME280;9381;54.244;10.074;2023-06-10T05:48:06;101540.22;;;17.06;95.45
18504;BME280;9381;54.244;10.074;2023-06-10T05:53:06;101527.03;;;17.15;92.73
18504;BME280;9381;54.244;10.074;2023-06-10T05:58:08;101533.66;;;17.30;92.77
18504;BME280;9381;54.244;10.074;2023-06-10T06:03:09;101529.47;;;17.51;91.79
18504;BME280;9381;54.244;10.074;2023-06-10T06:08:10;101523.13;;;17.62;90.89
18504;BME280;9381;54.244;10.074;2023-06-10T06:13:10;101532.72;;;17.76;89.83
18504;BME280;9381;54.244;10.074;2023-06-10T06:18:10;101546.78;;;17.68;90.77
18504;BME280;9381;54.244;10.074;2023-06-10T06:23:11;101534.38;;;17.77;91.37
18504;BME280;9381;54.244;10.074;2023-06-10T06:28:11;101538.97;;;17.88;89.17
18504;BME280;9381;54.244;10.074;2023-06-10T06:33:13;101537.56;;;18.01;89.21
18504;BME280;9381;54.244;10.074;2023-06-10T06:38:13;101539.75;;;18.16;88.62
18504;BME280;9381;54.244;10.074;2023-06-10T06:43:13;101539.13;;;18.25;87.40
18504;BME280;9381;54.244;10.074;2023-06-10T06:48:14;101538.03;;;18.26;87.26
18504;BME280;9381;54.244;10.074;2023-06-10T06:53:14;101539.69;;;18.27;87.34
18504;BME280;9381;54.244;10.074;2023-06-10T06:58:15;101533.03;;;18.51;86.99
18504;BME280;9381;54.244;10.074;2023-06-10T07:03:15;101542.44;;;18.93;86.73
18504;BME280;9381;54.244;10.074;2023-06-10T07:08:15;101543.25;;;19.10;86.68
18504;BME280;9381;54.244;10.074;2023-06-10T07:13:16;101540.31;;;18.95;84.38
18504;BME280;9381;54.244;10.074;2023-06-10T07:18:16;101550.94;;;18.75;84.48
18504;BME280;9381;54.244;10.074;2023-06-10T07:23:17;101559.03;;;18.82;85.72
18504;BME280;9381;54.244;10.074;2023-06-10T07:28:17;101555.25;;;18.88;85.70
18504;BME280;9381;54.244;10.074;2023-06-10T07:33:18;101560.19;;;19.24;84.10
18504;BME280;9381;54.244;10.074;2023-06-10T07:38:18;101566.03;;;19.70;83.69
18504;BME280;9381;54.244;10.074;2023-06-10T07:43:19;101570.06;;;19.63;82.38
18504;BME280;9381;54.244;10.074;2023-06-10T07:48:19;101579.94;;;19.85;81.85
18504;BME280;9381;54.244;10.074;2023-06-10T07:53:19;101575.28;;;19.64;82.29
18504;BME280;9381;54.244;10.074;2023-06-10T07:58:19;101567.06;;;19.64;83.77
18504;BME280;9381;54.244;10.074;2023-06-10T08:03:20;101571.72;;;20.33;82.65
18504;BME280;9381;54.244;10.074;2023-06-10T08:08:21;101567.31;;;20.64;79.63
18504;BME280;9381;54.244;10.074;2023-06-10T08:13:21;101566.63;;;20.47;80.26
18504;BME280;9381;54.244;10.074;2023-06-10T08:18:21;101565.84;;;20.56;80.74
18504;BME280;9381;54.244;10.074;2023-06-10T08:23:22;101558.47;;;20.88;79.28
18504;BME280;9381;54.244;10.074;2023-06-10T08:28:23;101542.22;;;21.33;77.47
18504;BME280;9381;54.244;10.074;2023-06-10T08:33:23;101552.88;;;21.71;76.95
18504;BME280;9381;54.244;10.074;2023-06-10T08:38:23;101554.09;;;21.38;75.36
18504;BME280;9381;54.244;10.074;2023-06-10T08:43:44;101554.63;;;20.89;78.44
18504;BME280;9381;54.244;10.074;2023-06-10T08:48:48;101558.84;;;20.70;78.45
18504;BME280;9381;54.244;10.074;2023-06-10T08:54:05;101553.97;;;20.82;78.99
18504;BME280;9381;54.244;10.074;2023-06-10T08:59:10;101555.53;;;20.68;78.14
18504;BME280;9381;54.244;10.074;2023-06-10T09:04:12;101560.13;;;20.89;79.80
18504;BME280;9381;54.244;10.074;2023-06-10T09:09:14;101556.28;;;20.59;79.63
18504;BME280;9381;54.244;10.074;2023-06-10T09:14:15;101545.88;;;20.97;79.65
18504;BME280;9381;54.244;10.074;2023-06-10T09:19:17;101550.72;;;21.26;78.96
18504;BME280;9381;54.244;10.074;2023-06-10T09:24:18;101549.50;;;21.59;77.94
18504;BME280;9381;54.244;10.074;2023-06-10T09:29:18;101545.53;;;22.01;76.01
18504;BME280;9381;54.244;10.074;2023-06-10T09:34:18;101545.66;;;22.46;74.41
18504;BME280;9381;54.244;10.074;2023-06-10T09:39:19;101540.91;;;22.92;74.37
18504;BME280;9381;54.244;10.074;2023-06-10T09:44:21;101543.69;;;22.97;72.33
18504;BME280;9381;54.244;10.074;2023-06-10T09:49:21;101537.63;;;22.90;71.67
18504;BME280;9381;54.244;10.074;2023-06-10T09:54:22;101536.38;;;23.51;71.04
18504;BME280;9381;54.244;10.074;2023-06-10T09:59:29;101537.06;;;23.86;69.72
18504;BME280;9381;54.244;10.074;2023-06-10T10:04:34;101535.53;;;24.80;67.57
18504;BME280;9381;54.244;10.074;2023-06-10T10:09:36;101530.41;;;24.97;64.56
18504;BME280;9381;54.244;10.074;2023-06-10T10:14:37;101538.50;;;24.60;65.61
18504;BME280;9381;54.244;10.074;2023-06-10T10:19:43;101533.91;;;24.79;65.78
18504;BME280;9381;54.244;10.074;2023-06-10T10:24:52;101532.69;;;25.42;63.70
18504;BME280;9381;54.244;10.074;2023-06-10T10:29:54;101541.75;;;25.71;64.33
18504;BME280;9381;54.244;10.074;2023-06-10T10:35:16;101542.16;;;26.57;60.93
18504;BME280;9381;54.244;10.074;2023-06-10T10:40:19;101539.16;;;26.35;60.93
18504;BME280;9381;54.244;10.074;2023-06-10T10:45:21;101538.13;;;27.27;61.13
18504;BME280;9381;54.244;10.074;2023-06-10T10:50:22;101544.50;;;27.41;58.46
18504;BME280;9381;54.244;10.074;2023-06-10T10:55:23;101534.50;;;27.13;58.42
18504;BME280;9381;54.244;10.074;2023-06-10T11:05:38;101540.06;;;27.40;58.58
18504;BME280;9381;54.244;10.074;2023-06-10T11:10:40;101538.50;;;27.61;57.81
18504;BME280;9381;54.244;10.074;2023-06-10T11:15:45;101531.31;;;27.60;56.92
18504;BME280;9381;54.244;10.074;2023-06-10T11:25:50;101531.31;;;27.60;56.38
18504;BME280;9381;54.244;10.074;2023-06-10T11:30:57;101533.50;;;27.50;57.18
18504;BME280;9381;54.244;10.074;2023-06-10T11:35:57;101521.78;;;28.01;56.98
18504;BME280;9381;54.244;10.074;2023-06-10T11:40:58;101536.63;;;27.97;56.60
18504;BME280;9381;54.244;10.074;2023-06-10T11:45:59;101519.75;;;28.07;56.37
18504;BME280;9381;54.244;10.074;2023-06-10T11:51:00;101518.19;;;28.36;55.40
18504;BME280;9381;54.244;10.074;2023-06-10T11:56:00;101527.41;;;28.23;55.67
18504;BME280;9381;54.244;10.074;2023-06-10T12:01:01;101521.06;;;28.45;56.10
18504;BME280;9381;54.244;10.074;2023-06-10T12:06:05;101511.84;;;28.88;54.02
18504;BME280;9381;54.244;10.074;2023-06-10T12:11:06;101512.41;;;28.33;54.51
18504;BME280;9381;54.244;10.074;2023-06-10T12:16:07;101523.47;;;28.02;56.30
18504;BME280;9381;54.244;10.074;2023-06-10T12:21:18;101522.97;;;28.36;55.84
18504;BME280;9381;54.244;10.074;2023-06-10T12:26:19;101520.25;;;28.31;56.56
18504;BME280;9381;54.244;10.074;2023-06-10T12:31:19;101522.44;;;28.56;55.24
18504;BME280;9381;54.244;10.074;2023-06-10T12:36:19;101527.88;;;28.83;56.12
18504;BME280;9381;54.244;10.074;2023-06-10T12:41:22;101529.59;;;28.70;55.14
18504;BME280;9381;54.244;10.074;2023-06-10T12:46:22;101520.91;;;28.94;54.76
18504;BME280;9381;54.244;10.074;2023-06-10T12:51:22;101518.22;;;28.89;54.38
18504;BME280;9381;54.244;10.074;2023-06-10T12:56:23;101520.66;;;28.82;54.00
18504;BME280;9381;54.244;10.074;2023-06-10T13:01:24;101501.78;;;28.13;56.27
18504;BME280;9381;54.244;10.074;2023-06-10T13:06:24;101507.31;;;27.91;56.60
18504;BME280;9381;54.244;10.074;2023-06-10T13:11:24;101497.94;;;27.87;57.80
18504;BME280;9381;54.244;10.074;2023-06-10T13:16:25;101489.44;;;28.41;55.86
18504;BME280;9381;54.244;10.074;2023-06-10T13:21:26;101499.03;;;28.57;55.27
18504;BME280;9381;54.244;10.074;2023-06-10T13:26:27;101483.84;;;28.41;55.46
18504;BME280;9381;54.244;10.074;2023-06-10T13:31:33;101485.94;;;27.24;57.86
18504;BME280;9381;54.244;10.074;2023-06-10T13:36:36;101488.47;;;27.88;57.80
18504;BME280;9381;54.244;10.074;2023-06-10T13:41:37;101484.78;;;27.79;56.91
18504;BME280;9381;54.244;10.074;2023-06-10T13:46:37;101483.16;;;27.51;59.14
18504;BME280;9381;54.244;10.074;2023-06-10T13:51:38;101477.59;;;27.51;59.35
18504;BME280;9381;54.244;10.074;2023-06-10T13:56:38;101472.94;;;27.60;58.20
18504;BME280;9381;54.244;10.074;2023-06-10T14:01:39;101480.91;;;27.53;58.89
18504;BME280;9381;54.244;10.074;2023-06-10T14:06:40;101470.19;;;27.20;60.28
18504;BME280;9381;54.244;10.074;2023-06-10T14:11:41;101461.84;;;26.47;61.30
18504;BME280;9381;54.244;10.074;2023-06-10T14:16:41;101465.13;;;26.49;61.31
18504;BME280;9381;54.244;10.074;2023-06-10T14:21:42;101476.28;;;26.12;62.49
18504;BME280;9381;54.244;10.074;2023-06-10T14:26:42;101470.41;;;25.58;63.83
18504;BME280;9381;54.244;10.074;2023-06-10T14:31:42;101480.97;;;25.56;65.36
18504;BME280;9381;54.244;10.074;2023-06-10T14:36:43;101475.56;;;25.65;64.54
18504;BME280;9381;54.244;10.074;2023-06-10T14:41:43;101485.06;;;25.40;64.79
18504;BME280;9381;54.244;10.074;2023-06-10T14:46:44;101484.13;;;25.26;64.99
18504;BME280;9381;54.244;10.074;2023-06-10T14:51:44;101474.19;;;25.20;65.50
18504;BME280;9381;54.244;10.074;2023-06-10T14:56:45;101474.56;;;25.37;64.28
18504;BME280;9381;54.244;10.074;2023-06-10T15:01:45;101471.69;;;25.24;65.81
18504;BME280;9381;54.244;10.074;2023-06-10T15:06:45;101475.75;;;25.31;66.31
18504;BME280;9381;54.244;10.074;2023-06-10T15:11:48;101471.72;;;24.95;66.67
18504;BME280;9381;54.244;10.074;2023-06-10T15:16:49;101465.84;;;25.02;65.50
18504;BME280;9381;54.244;10.074;2023-06-10T15:21:49;101474.16;;;24.78;66.67
18504;BME280;9381;54.244;10.074;2023-06-10T15:26:49;101468.28;;;24.51;66.07
18504;BME280;9381;54.244;10.074;2023-06-10T15:31:50;101476.13;;;24.39;66.78
18504;BME280;9381;54.244;10.074;2023-06-10T15:36:50;101475.06;;;24.02;67.40
18504;BME280;9381;54.244;10.074;2023-06-10T15:41:51;101476.53;;;23.90;67.65
18504;BME280;9381;54.244;10.074;2023-06-10T15:46:51;101471.56;;;23.82;68.50
18504;BME280;9381;54.244;10.074;2023-06-10T15:51:51;101465.19;;;23.81;68.85
18504;BME280;9381;54.244;10.074;2023-06-10T15:56:52;101472.66;;;23.86;68.95
18504;BME280;9381;54.244;10.074;2023-06-10T16:01:52;101468.78;;;23.87;67.96
18504;BME280;9381;54.244;10.074;2023-06-10T16:06:52;101475.56;;;23.61;69.00
18504;BME280;9381;54.244;10.074;2023-06-10T16:11:54;101476.69;;;23.55;69.01
18504;BME280;9381;54.244;10.074;2023-06-10T16:16:54;101476.50;;;23.36;69.74
18504;BME280;9381;54.244;10.074;2023-06-10T16:21:58;101469.09;;;23.22;69.58
18504;BME280;9381;54.244;10.074;2023-06-10T16:26:58;101468.00;;;23.13;69.75
18504;BME280;9381;54.244;10.074;2023-06-10T16:31:59;101471.38;;;23.15;70.21
18504;BME280;9381;54.244;10.074;2023-06-10T16:36:59;101477.38;;;23.27;69.90
18504;BME280;9381;54.244;10.074;2023-06-10T16:41:59;101466.88;;;23.29;68.75
18504;BME280;9381;54.244;10.074;2023-06-10T16:47:00;101479.03;;;23.13;69.01
18504;BME280;9381;54.244;10.074;2023-06-10T16:52:00;101469.69;;;23.24;69.07
18504;BME280;9381;54.244;10.074;2023-06-10T16:57:01;101474.13;;;23.15;67.87
18504;BME280;9381;54.244;10.074;2023-06-10T17:02:01;101472.44;;;23.09;67.51
18504;BME280;9381;54.244;10.074;2023-06-10T17:07:01;101472.53;;;22.79;66.20
18504;BME280;9381;54.244;10.074;2023-06-10T17:12:02;101469.50;;;22.70;66.07
18504;BME280;9381;54.244;10.074;2023-06-10T17:17:03;101472.53;;;22.39;65.96
18504;BME280;9381;54.244;10.074;2023-06-10T17:22:03;101471.44;;;22.05;66.00
18504;BME280;9381;54.244;10.074;2023-06-10T17:27:04;101473.91;;;22.01;66.35
18504;BME280;9381;54.244;10.074;2023-06-10T17:32:06;101476.91;;;21.95;66.46
18504;BME280;9381;54.244;10.074;2023-06-10T17:37:06;101479.16;;;21.98;66.01
18504;BME280;9381;54.244;10.074;2023-06-10T17:42:07;101482.97;;;21.82;66.07
18504;BME280;9381;54.244;10.074;2023-06-10T17:47:07;101485.16;;;21.70;65.89
18504;BME280;9381;54.244;10.074;2023-06-10T17:52:08;101490.88;;;21.63;66.32
18504;BME280;9381;54.244;10.074;2023-06-10T17:57:08;101496.31;;;21.43;65.67
18504;BME280;9381;54.244;10.074;2023-06-10T18:02:09;101493.50;;;21.33;65.02
18504;BME280;9381;54.244;10.074;2023-06-10T18:07:09;101505.91;;;21.36;65.41
18504;BME280;9381;54.244;10.074;2023-06-10T18:12:10;101510.81;;;21.29;64.02
18504;BME280;9381;54.244;10.074;2023-06-10T18:17:11;101507.22;;;21.23;63.82
18504;BME280;9381;54.244;10.074;2023-06-10T18:22:11;101520.63;;;21.05;64.51
18504;BME280;9381;54.244;10.074;2023-06-10T18:27:12;101517.88;;;21.10;63.64
18504;BME280;9381;54.244;10.074;2023-06-10T18:32:13;101532.63;;;20.89;62.79
18504;BME280;9381;54.244;10.074;2023-06-10T18:37:13;101525.31;;;20.73;63.71
18504;BME280;9381;54.244;10.074;2023-06-10T18:42:13;101536.72;;;20.55;63.31
18504;BME280;9381;54.244;10.074;2023-06-10T18:47:14;101542.69;;;20.47;62.87
18504;BME280;9381;54.244;10.074;2023-06-10T18:52:14;101549.81;;;20.43;62.66
18504;BME280;9381;54.244;10.074;2023-06-10T18:57:15;101551.22;;;20.19;63.21
18504;BME280;9381;54.244;10.074;2023-06-10T19:02:15;101557.50;;;20.15;62.81
18504;BME280;9381;54.244;10.074;2023-06-10T19:07:19;101565.44;;;20.11;63.07
18504;BME280;9381;54.244;10.074;2023-06-10T19:12:19;101572.28;;;19.87;63.57
18504;BME280;9381;54.244;10.074;2023-06-10T19:17:21;101587.09;;;19.86;62.84
18504;BME280;9381;54.244;10.074;2023-06-10T19:22:21;101585.19;;;19.65;62.84
18504;BME280;9381;54.244;10.074;2023-06-10T19:27:22;101585.38;;;19.59;63.11
18504;BME280;9381;54.244;10.074;2023-06-10T19:32:23;101595.84;;;19.40;63.37
18504;BME280;9381;54.244;10.074;2023-06-10T19:37:24;101588.81;;;19.28;63.77
18504;BME280;9381;54.244;10.074;2023-06-10T19:42:24;101599.13;;;19.21;63.95
18504;BME280;9381;54.244;10.074;2023-06-10T19:47:25;101605.25;;;19.11;64.42
18504;BME280;9381;54.244;10.074;2023-06-10T19:52:26;101608.91;;;19.00;64.94
18504;BME280;9381;54.244;10.074;2023-06-10T19:57:26;101606.91;;;18.96;64.88
18504;BME280;9381;54.244;10.074;2023-06-10T20:02:27;101610.25;;;18.81;65.21
18504;BME280;9381;54.244;10.074;2023-06-10T20:07:27;101614.41;;;18.67;65.29
18504;BME280;9381;54.244;10.074;2023-06-10T20:12:30;101614.47;;;18.56;65.64
18504;BME280;9381;54.244;10.074;2023-06-10T20:17:31;101629.31;;;18.43;65.78
18504;BME280;9381;54.244;10.074;2023-06-10T20:22:31;101631.66;;;18.35;66.02
18504;BME280;9381;54.244;10.074;2023-06-10T20:27:32;101643.75;;;18.39;66.29
18504;BME280;9381;54.244;10.074;2023-06-10T20:32:32;101643.91;;;18.32;65.92
18504;BME280;9381;54.244;10.074;2023-06-10T20:37:32;101641.34;;;18.14;66.32
18504;BME280;9381;54.244;10.074;2023-06-10T20:42:33;101652.84;;;18.28;66.21
18504;BME280;9381;54.244;10.074;2023-06-10T20:47:34;101651.00;;;18.05;66.86
18504;BME280;9381;54.244;10.074;2023-06-10T20:52:34;101660.91;;;17.95;66.65
18504;BME280;9381;54.244;10.074;2023-06-10T20:57:35;101661.63;;;17.90;66.97
18504;BME280;9381;54.244;10.074;2023-06-10T21:02:35;101656.81;;;17.81;67.06
18504;BME280;9381;54.244;10.074;2023-06-10T21:07:36;101659.19;;;17.66;67.29
18504;BME280;9381;54.244;10.074;2023-06-10T21:12:36;101651.50;;;17.52;67.98
18504;BME280;9381;54.244;10.074;2023-06-10T21:17:37;101651.63;;;17.45;67.74
18504;BME280;9381;54.244;10.074;2023-06-10T21:22:37;101662.53;;;17.34;67.28
18504;BME280;9381;54.244;10.074;2023-06-10T21:27:38;101653.41;;;17.40;67.15
18504;BME280;9381;54.244;10.074;2023-06-10T21:32:39;101666.47;;;17.38;67.40
18504;BME280;9381;54.244;10.074;2023-06-10T21:37:39;101668.72;;;17.29;67.55
18504;BME280;9381;54.244;10.074;2023-06-10T21:42:39;101675.00;;;17.30;67.68
18504;BME280;9381;54.244;10.074;2023-06-10T21:47:43;101679.03;;;17.16;68.69
18504;BME280;9381;54.244;10.074;2023-06-10T21:52:44;101687.38;;;17.21;67.69
18504;BME280;9381;54.244;10.074;2023-06-10T21:57:44;101693.44;;;17.11;68.09
18504;BME280;9381;54.244;10.074;2023-06-10T22:02:44;101689.97;;;17.16;67.95
18504;BME280;9381;54.244;10.074;2023-06-10T22:07:45;101684.50;;;17.16;67.58
18504;BME280;9381;54.244;10.074;2023-06-10T22:12:45;101684.03;;;17.19;67.41
18504;BME280;9381;54.244;10.074;2023-06-10T22:17:46;101695.22;;;17.06;68.02
18504;BME280;9381;54.244;10.074;2023-06-10T22:22:48;101684.88;;;17.08;68.23
18504;BME280;9381;54.244;10.074;2023-06-10T22:27:49;101690.81;;;17.05;68.12
18504;BME280;9381;54.244;10.074;2023-06-10T22:32:49;101687.09;;;16.88;68.33
18504;BME280;9381;54.244;10.074;2023-06-10T22:37:50;101686.94;;;16.71;69.22
18504;BME280;9381;54.244;10.074;2023-06-10T22:42:50;101684.53;;;16.75;68.78
18504;BME280;9381;54.244;10.074;2023-06-10T22:47:50;101690.72;;;16.70;68.84
18504;BME280;9381;54.244;10.074;2023-06-10T22:52:51;101698.78;;;16.65;68.66
18504;BME280;9381;54.244;10.074;2023-06-10T22:57:52;101698.69;;;16.72;68.52
18504;BME280;9381;54.244;10.074;2023-06-10T23:02:52;101693.06;;;16.55;68.45
18504;BME280;9381;54.244;10.074;2023-06-10T23:07:52;101701.56;;;16.47;68.97
18504;BME280;9381;54.244;10.074;2023-06-10T23:12:53;101701.06;;;16.39;69.28
18504;BME280;9381;54.244;10.074;2023-06-10T23:17:53;101697.50;;;16.38;69.43
18504;BME280;9381;54.244;10.074;2023-06-10T23:22:55;101689.97;;;16.34;69.20
18504;BME280;9381;54.244;10.074;2023-06-10T23:27:55;101695.97;;;16.24;70.11
18504;BME280;9381;54.244;10.074;2023-06-10T23:32:56;101684.69;;;16.21;70.42
18504;BME280;9381;54.244;10.074;2023-06-10T23:37:58;101686.69;;;16.14;70.56
18504;BME280;9381;54.244;10.074;2023-06-10T23:42:58;101697.81;;;16.12;71.13
18504;BME280;9381;54.244;10.074;2023-06-10T23:47:59;101695.19;;;16.06;71.38
18504;BME280;9381;54.244;10.074;2023-06-10T23:52:59;101689.22;;;15.97;71.88
18504;BME280;9381;54.244;10.074;2023-06-10T23:58:01;101688.19;;;15.92;72.57
